sensor_id;sensor_type;location;lat;lon;timestamp;P1;durP1;ratioP1;P2;durP2;ratioP2
36137;SDS011;22194;50.046;21.954;2022-12-15T00:01:01;63.20;;;31.90;;
36137;SDS011;22194;50.046;21.954;2022-12-15T00:03:52;62.10;;;31.80;;
36137;SDS011;22194;50.046;21.954;2022-12-15T00:06:39;57.70;;;31.00;;
36137;SDS011;22194;50.046;21.954;2022-12-15T00:09:29;67.80;;;33.00;;
36137;SDS011;22194;50.046;21.954;2022-12-15T00:12:16;60.10;;;32.60;;
36137;SDS011;22194;50.046;21.954;2022-12-15T00:15:05;58.20;;;31.00;;
36137;SDS011;22194;50.046;21.954;2022-12-15T00:17:53;54.70;;;27.80;;
36137;SDS011;22194;50.046;21.954;2022-12-15T00:20:39;51.30;;;28.40;;
36137;SDS011;22194;50.046;21.954;2022-12-15T00:23:26;51.80;;;25.90;;
36137;SDS011;22194;50.046;21.954;2022-12-15T00:26:12;48.40;;;26.00;;
36137;SDS011;22194;50.046;21.954;2022-12-15T00:28:58;50.20;;;27.50;;
36137;SDS011;22194;50.046;21.954;2022-12-15T00:31:45;52.20;;;25.90;;
36137;SDS011;22194;50.046;21.954;2022-12-15T00:34:33;53.50;;;28.00;;
36137;SDS011;22194;50.046;21.954;2022-12-15T00:37:20;51.60;;;27.40;;
36137;SDS011;22194;50.046;21.954;2022-12-15T00:40:07;52.20;;;27.30;;
36137;SDS011;22194;50.046;21.954;2022-12-15T00:42:37;56.30;;;29.10;;
36137;SDS011;22194;50.046;21.954;2022-12-15T00:45:07;50.30;;;25.90;;
36137;SDS011;22194;50.046;21.954;2022-12-15T00:47:37;53.40;;;29.80;;
36137;SDS011;22194;50.046;21.954;2022-12-15T00:50:08;51.80;;;27.30;;
36137;SDS011;22194;50.046;21.954;2022-12-15T00:52:55;54.60;;;27.80;;
36137;SDS011;22194;50.046;21.954;2022-12-15T00:55:42;46.60;;;24.90;;
36137;SDS011;22194;50.046;21.954;2022-12-15T00:58:29;51.20;;;24.90;;
36137;SDS011;22194;50.046;21.954;2022-12-15T01:01:15;48.60;;;24.20;;
36137;SDS011;22194;50.046;21.954;2022-12-15T01:04:03;42.00;;;20.40;;
36137;SDS011;22194;50.046;21.954;2022-12-15T01:06:50;38.30;;;17.70;;
36137;SDS011;22194;50.046;21.954;2022-12-15T01:09:36;38.40;;;17.80;;
36137;SDS011;22194;50.046;21.954;2022-12-15T01:12:23;32.60;;;14.60;;
36137;SDS011;22194;50.046;21.954;2022-12-15T01:15:14;35.50;;;17.10;;
36137;SDS011;22194;50.046;21.954;2022-12-15T01:18:03;35.20;;;15.80;;
36137;SDS011;22194;50.046;21.954;2022-12-15T01:20:55;33.70;;;15.70;;
36137;SDS011;22194;50.046;21.954;2022-12-15T01:23:31;31.90;;;15.20;;
36137;SDS011;22194;50.046;21.954;2022-12-15T01:26:05;29.40;;;13.70;;
36137;SDS011;22194;50.046;21.954;2022-12-15T01:28:36;28.10;;;13.60;;
36137;SDS011;22194;50.046;21.954;2022-12-15T01:31:10;27.50;;;12.50;;
36137;SDS011;22194;50.046;21.954;2022-12-15T01:33:43;27.00;;;12.10;;
36137;SDS011;22194;50.046;21.954;2022-12-15T01:36:11;27.80;;;11.50;;
36137;SDS011;22194;50.046;21.954;2022-12-15T01:38:39;25.30;;;11.40;;
36137;SDS011;22194;50.046;21.954;2022-12-15T01:41:10;26.70;;;11.00;;
36137;SDS011;22194;50.046;21.954;2022-12-15T01:43:42;26.00;;;10.50;;
36137;SDS011;22194;50.046;21.954;2022-12-15T01:46:14;25.30;;;10.70;;
36137;SDS011;22194;50.046;21.954;2022-12-15T01:48:59;26.10;;;12.00;;
36137;SDS011;22194;50.046;21.954;2022-12-15T01:51:43;22.80;;;10.90;;
36137;SDS011;22194;50.046;21.954;2022-12-15T01:54:20;25.40;;;11.50;;
36137;SDS011;22194;50.046;21.954;2022-12-15T01:56:54;24.20;;;10.30;;
36137;SDS011;22194;50.046;21.954;2022-12-15T01:59:34;23.00;;;10.80;;
36137;SDS011;22194;50.046;21.954;2022-12-15T02:02:07;27.00;;;12.00;;
36137;SDS011;22194;50.046;21.954;2022-12-15T02:04:39;24.50;;;11.80;;
36137;SDS011;22194;50.046;21.954;2022-12-15T02:07:11;24.60;;;11.90;;
36137;SDS011;22194;50.046;21.954;2022-12-15T02:09:44;23.70;;;10.10;;
36137;SDS011;22194;50.046;21.954;2022-12-15T02:31:43;25.60;;;11.50;;
36137;SDS011;22194;50.046;21.954;2022-12-15T02:40:12;24.30;;;11.00;;
36137;SDS011;22194;50.046;21.954;2022-12-15T02:42:44;24.80;;;11.10;;
36137;SDS011;22194;50.046;21.954;2022-12-15T02:45:19;25.80;;;11.70;;
36137;SDS011;22194;50.046;21.954;2022-12-15T02:48:05;26.90;;;12.40;;
36137;SDS011;22194;50.046;21.954;2022-12-15T02:56:08;25.50;;;11.40;;
36137;SDS011;22194;50.046;21.954;2022-12-15T02:58:47;27.50;;;11.40;;
36137;SDS011;22194;50.046;21.954;2022-12-15T03:01:28;27.60;;;11.60;;
36137;SDS011;22194;50.046;21.954;2022-12-15T03:04:17;27.10;;;11.50;;
36137;SDS011;22194;50.046;21.954;2022-12-15T03:06:56;27.20;;;12.10;;
36137;SDS011;22194;50.046;21.954;2022-12-15T03:09:30;25.00;;;11.10;;
36137;SDS011;22194;50.046;21.954;2022-12-15T03:12:05;23.50;;;10.10;;
36137;SDS011;22194;50.046;21.954;2022-12-15T03:14:34;26.40;;;12.60;;
36137;SDS011;22194;50.046;21.954;2022-12-15T03:17:02;28.50;;;12.90;;
36137;SDS011;22194;50.046;21.954;2022-12-15T03:19:37;27.10;;;12.90;;
36137;SDS011;22194;50.046;21.954;2022-12-15T03:22:09;27.80;;;12.60;;
36137;SDS011;22194;50.046;21.954;2022-12-15T03:24:39;23.20;;;11.00;;
36137;SDS011;22194;50.046;21.954;2022-12-15T03:27:08;25.20;;;11.80;;
36137;SDS011;22194;50.046;21.954;2022-12-15T03:29:36;25.60;;;11.30;;
36137;SDS011;22194;50.046;21.954;2022-12-15T03:32:08;25.00;;;11.60;;
36137;SDS011;22194;50.046;21.954;2022-12-15T03:34:40;24.00;;;12.10;;
36137;SDS011;22194;50.046;21.954;2022-12-15T03:37:12;29.40;;;13.70;;
36137;SDS011;22194;50.046;21.954;2022-12-15T03:39:40;29.50;;;13.20;;
36137;SDS011;22194;50.046;21.954;2022-12-15T03:42:08;26.90;;;13.20;;
36137;SDS011;22194;50.046;21.954;2022-12-15T03:44:40;26.60;;;12.80;;
36137;SDS011;22194;50.046;21.954;2022-12-15T03:47:08;27.60;;;13.00;;
36137;SDS011;22194;50.046;21.954;2022-12-15T03:49:35;27.50;;;13.20;;
36137;SDS011;22194;50.046;21.954;2022-12-15T03:52:03;29.20;;;14.60;;
36137;SDS011;22194;50.046;21.954;2022-12-15T03:54:31;25.50;;;12.30;;
36137;SDS011;22194;50.046;21.954;2022-12-15T03:56:59;25.40;;;12.50;;
36137;SDS011;22194;50.046;21.954;2022-12-15T03:59:31;27.60;;;13.90;;
36137;SDS011;22194;50.046;21.954;2022-12-15T04:01:59;26.20;;;12.30;;
36137;SDS011;22194;50.046;21.954;2022-12-15T04:04:31;26.90;;;12.70;;
36137;SDS011;22194;50.046;21.954;2022-12-15T04:06:59;26.30;;;13.00;;
36137;SDS011;22194;50.046;21.954;2022-12-15T04:09:30;28.90;;;13.90;;
36137;SDS011;22194;50.046;21.954;2022-12-15T04:11:58;27.50;;;12.40;;
36137;SDS011;22194;50.046;21.954;2022-12-15T04:14:28;29.40;;;13.90;;
36137;SDS011;22194;50.046;21.954;2022-12-15T04:17:00;27.20;;;13.10;;
36137;SDS011;22194;50.046;21.954;2022-12-15T04:19:32;30.70;;;13.40;;
36137;SDS011;22194;50.046;21.954;2022-12-15T04:22:22;28.30;;;11.90;;
36137;SDS011;22194;50.046;21.954;2022-12-15T04:24:52;27.50;;;12.30;;
36137;SDS011;22194;50.046;21.954;2022-12-15T04:27:38;27.70;;;13.50;;
36137;SDS011;22194;50.046;21.954;2022-12-15T04:30:29;29.40;;;13.80;;
36137;SDS011;22194;50.046;21.954;2022-12-15T04:33:23;26.00;;;12.40;;
36137;SDS011;22194;50.046;21.954;2022-12-15T04:36:14;28.60;;;13.90;;
36137;SDS011;22194;50.046;21.954;2022-12-15T04:39:05;26.60;;;12.20;;
36137;SDS011;22194;50.046;21.954;2022-12-15T04:41:52;26.90;;;13.30;;
36137;SDS011;22194;50.046;21.954;2022-12-15T04:44:43;26.70;;;13.50;;
36137;SDS011;22194;50.046;21.954;2022-12-15T04:47:34;29.10;;;13.20;;
36137;SDS011;22194;50.046;21.954;2022-12-15T04:50:21;30.20;;;13.80;;
36137;SDS011;22194;50.046;21.954;2022-12-15T04:53:09;28.30;;;13.10;;
36137;SDS011;22194;50.046;21.954;2022-12-15T04:56:02;31.00;;;14.60;;
36137;SDS011;22194;50.046;21.954;2022-12-15T04:58:57;27.60;;;12.70;;
36137;SDS011;22194;50.046;21.954;2022-12-15T05:01:48;31.90;;;15.00;;
36137;SDS011;22194;50.046;21.954;2022-12-15T05:04:35;29.70;;;14.00;;
36137;SDS011;22194;50.046;21.954;2022-12-15T05:07:23;31.80;;;14.80;;
36137;SDS011;22194;50.046;21.954;2022-12-15T05:10:13;30.00;;;14.30;;
36137;SDS011;22194;50.046;21.954;2022-12-15T05:13:06;30.10;;;14.90;;
36137;SDS011;22194;50.046;21.954;2022-12-15T05:15:58;28.00;;;14.80;;
36137;SDS011;22194;50.046;21.954;2022-12-15T05:18:45;28.50;;;13.30;;
36137;SDS011;22194;50.046;21.954;2022-12-15T05:21:32;28.50;;;14.20;;
36137;SDS011;22194;50.046;21.954;2022-12-15T05:24:19;34.00;;;15.40;;
36137;SDS011;22194;50.046;21.954;2022-12-15T05:27:05;32.00;;;14.30;;
36137;SDS011;22194;50.046;21.954;2022-12-15T05:29:56;33.30;;;16.80;;
36137;SDS011;22194;50.046;21.954;2022-12-15T05:32:43;28.10;;;14.20;;
36137;SDS011;22194;50.046;21.954;2022-12-15T05:35:11;29.40;;;15.10;;
36137;SDS011;22194;50.046;21.954;2022-12-15T05:37:40;31.30;;;14.80;;
36137;SDS011;22194;50.046;21.954;2022-12-15T05:40:08;32.40;;;16.00;;
36137;SDS011;22194;50.046;21.954;2022-12-15T05:42:40;30.10;;;14.90;;
36137;SDS011;22194;50.046;21.954;2022-12-15T05:45:08;31.70;;;16.30;;
36137;SDS011;22194;50.046;21.954;2022-12-15T05:47:38;30.40;;;15.60;;
36137;SDS011;22194;50.046;21.954;2022-12-15T05:50:09;30.60;;;15.80;;
36137;SDS011;22194;50.046;21.954;2022-12-15T05:52:37;31.30;;;15.20;;
36137;SDS011;22194;50.046;21.954;2022-12-15T05:55:08;31.40;;;16.00;;
36137;SDS011;22194;50.046;21.954;2022-12-15T05:57:36;33.50;;;15.40;;
36137;SDS011;22194;50.046;21.954;2022-12-15T06:00:08;31.90;;;14.70;;
36137;SDS011;22194;50.046;21.954;2022-12-15T06:02:39;32.90;;;15.50;;
36137;SDS011;22194;50.046;21.954;2022-12-15T06:05:10;31.20;;;14.80;;
36137;SDS011;22194;50.046;21.954;2022-12-15T06:07:38;30.70;;;15.30;;
36137;SDS011;22194;50.046;21.954;2022-12-15T06:10:08;31.30;;;16.30;;
36137;SDS011;22194;50.046;21.954;2022-12-15T06:12:37;29.80;;;16.10;;
36137;SDS011;22194;50.046;21.954;2022-12-15T06:15:08;34.50;;;16.50;;
36137;SDS011;22194;50.046;21.954;2022-12-15T06:17:36;33.90;;;16.30;;
36137;SDS011;22194;50.046;21.954;2022-12-15T06:20:05;36.90;;;16.80;;
36137;SDS011;22194;50.046;21.954;2022-12-15T06:22:36;37.30;;;17.60;;
36137;SDS011;22194;50.046;21.954;2022-12-15T06:25:05;29.30;;;14.80;;
36137;SDS011;22194;50.046;21.954;2022-12-15T06:27:36;35.70;;;16.10;;
36137;SDS011;22194;50.046;21.954;2022-12-15T06:30:05;32.00;;;15.90;;
36137;SDS011;22194;50.046;21.954;2022-12-15T06:32:36;33.10;;;16.30;;
36137;SDS011;22194;50.046;21.954;2022-12-15T06:35:05;32.10;;;15.80;;
36137;SDS011;22194;50.046;21.954;2022-12-15T06:37:36;32.20;;;15.40;;
36137;SDS011;22194;50.046;21.954;2022-12-15T06:40:07;31.40;;;15.70;;
36137;SDS011;22194;50.046;21.954;2022-12-15T06:42:37;30.40;;;15.30;;
36137;SDS011;22194;50.046;21.954;2022-12-15T06:45:05;30.60;;;15.00;;
36137;SDS011;22194;50.046;21.954;2022-12-15T06:47:37;30.40;;;15.50;;
36137;SDS011;22194;50.046;21.954;2022-12-15T06:50:10;33.40;;;14.50;;
36137;SDS011;22194;50.046;21.954;2022-12-15T06:52:38;31.30;;;15.50;;
36137;SDS011;22194;50.046;21.954;2022-12-15T06:55:09;31.70;;;16.50;;
36137;SDS011;22194;50.046;21.954;2022-12-15T06:57:38;29.70;;;14.40;;
36137;SDS011;22194;50.046;21.954;2022-12-15T07:00:12;33.00;;;16.50;;
36137;SDS011;22194;50.046;21.954;2022-12-15T07:02:42;31.60;;;16.00;;
36137;SDS011;22194;50.046;21.954;2022-12-15T07:05:19;28.80;;;14.00;;
36137;SDS011;22194;50.046;21.954;2022-12-15T07:07:51;29.30;;;14.50;;
36137;SDS011;22194;50.046;21.954;2022-12-15T07:10:22;29.70;;;14.10;;
36137;SDS011;22194;50.046;21.954;2022-12-15T07:12:50;31.20;;;15.10;;
36137;SDS011;22194;50.046;21.954;2022-12-15T07:15:18;32.50;;;15.70;;
36137;SDS011;22194;50.046;21.954;2022-12-15T07:17:46;31.10;;;15.20;;
36137;SDS011;22194;50.046;21.954;2022-12-15T07:20:17;31.40;;;15.30;;
36137;SDS011;22194;50.046;21.954;2022-12-15T07:22:53;32.30;;;15.20;;
36137;SDS011;22194;50.046;21.954;2022-12-15T07:25:25;34.80;;;16.20;;
36137;SDS011;22194;50.046;21.954;2022-12-15T07:27:55;31.70;;;15.50;;
36137;SDS011;22194;50.046;21.954;2022-12-15T07:30:23;30.00;;;15.70;;
36137;SDS011;22194;50.046;21.954;2022-12-15T07:32:51;31.40;;;14.90;;
36137;SDS011;22194;50.046;21.954;2022-12-15T07:35:23;29.60;;;15.20;;
36137;SDS011;22194;50.046;21.954;2022-12-15T07:37:56;31.40;;;15.10;;
36137;SDS011;22194;50.046;21.954;2022-12-15T07:40:32;31.80;;;14.20;;
36137;SDS011;22194;50.046;21.954;2022-12-15T07:43:04;32.60;;;15.90;;
36137;SDS011;22194;50.046;21.954;2022-12-15T07:45:32;33.50;;;15.70;;
36137;SDS011;22194;50.046;21.954;2022-12-15T07:48:00;32.10;;;15.50;;
36137;SDS011;22194;50.046;21.954;2022-12-15T07:50:29;30.30;;;15.20;;
36137;SDS011;22194;50.046;21.954;2022-12-15T07:52:59;32.80;;;15.40;;
36137;SDS011;22194;50.046;21.954;2022-12-15T07:55:28;34.70;;;16.60;;
36137;SDS011;22194;50.046;21.954;2022-12-15T07:58:16;29.60;;;14.40;;
36137;SDS011;22194;50.046;21.954;2022-12-15T08:00:43;35.60;;;16.80;;
36137;SDS011;22194;50.046;21.954;2022-12-15T08:03:19;31.80;;;16.50;;
36137;SDS011;22194;50.046;21.954;2022-12-15T08:05:51;32.30;;;15.40;;
36137;SDS011;22194;50.046;21.954;2022-12-15T08:08:34;34.10;;;15.80;;
36137;SDS011;22194;50.046;21.954;2022-12-15T08:11:07;33.80;;;15.90;;
36137;SDS011;22194;50.046;21.954;2022-12-15T08:13:41;30.00;;;15.40;;
36137;SDS011;22194;50.046;21.954;2022-12-15T08:16:33;31.90;;;16.10;;
36137;SDS011;22194;50.046;21.954;2022-12-15T08:19:09;34.20;;;16.90;;
36137;SDS011;22194;50.046;21.954;2022-12-15T08:21:44;33.30;;;16.50;;
36137;SDS011;22194;50.046;21.954;2022-12-15T08:24:16;35.40;;;16.80;;
36137;SDS011;22194;50.046;21.954;2022-12-15T08:26:48;38.40;;;18.80;;
36137;SDS011;22194;50.046;21.954;2022-12-15T08:29:20;38.00;;;18.60;;
36137;SDS011;22194;50.046;21.954;2022-12-15T08:32:08;36.70;;;17.80;;
36137;SDS011;22194;50.046;21.954;2022-12-15T08:34:40;36.60;;;19.10;;
36137;SDS011;22194;50.046;21.954;2022-12-15T08:37:15;39.60;;;19.30;;
36137;SDS011;22194;50.046;21.954;2022-12-15T08:39:47;38.00;;;19.20;;
36137;SDS011;22194;50.046;21.954;2022-12-15T08:42:21;40.60;;;20.40;;
36137;SDS011;22194;50.046;21.954;2022-12-15T08:44:49;40.30;;;18.80;;
36137;SDS011;22194;50.046;21.954;2022-12-15T08:47:16;45.30;;;20.50;;
36137;SDS011;22194;50.046;21.954;2022-12-15T08:49:44;40.90;;;20.40;;
36137;SDS011;22194;50.046;21.954;2022-12-15T08:52:16;42.40;;;20.80;;
36137;SDS011;22194;50.046;21.954;2022-12-15T08:54:44;42.40;;;20.80;;
36137;SDS011;22194;50.046;21.954;2022-12-15T08:57:12;39.90;;;21.90;;
36137;SDS011;22194;50.046;21.954;2022-12-15T08:59:42;42.60;;;21.60;;
36137;SDS011;22194;50.046;21.954;2022-12-15T09:02:10;44.70;;;21.40;;
36137;SDS011;22194;50.046;21.954;2022-12-15T09:04:43;40.70;;;20.00;;
36137;SDS011;22194;50.046;21.954;2022-12-15T09:07:18;48.20;;;23.70;;
36137;SDS011;22194;50.046;21.954;2022-12-15T09:09:49;43.90;;;22.90;;
36137;SDS011;22194;50.046;21.954;2022-12-15T09:12:17;47.50;;;24.10;;
36137;SDS011;22194;50.046;21.954;2022-12-15T09:14:45;46.00;;;22.70;;
36137;SDS011;22194;50.046;21.954;2022-12-15T09:17:17;44.50;;;23.20;;
36137;SDS011;22194;50.046;21.954;2022-12-15T09:19:49;48.50;;;23.20;;
36137;SDS011;22194;50.046;21.954;2022-12-15T09:22:17;44.50;;;22.30;;
36137;SDS011;22194;50.046;21.954;2022-12-15T09:24:48;43.40;;;21.80;;
36137;SDS011;22194;50.046;21.954;2022-12-15T09:27:20;46.00;;;22.80;;
36137;SDS011;22194;50.046;21.954;2022-12-15T09:29:48;45.10;;;23.60;;
36137;SDS011;22194;50.046;21.954;2022-12-15T09:32:19;46.40;;;23.10;;
36137;SDS011;22194;50.046;21.954;2022-12-15T09:34:49;48.70;;;22.70;;
36137;SDS011;22194;50.046;21.954;2022-12-15T09:37:20;47.20;;;23.80;;
36137;SDS011;22194;50.046;21.954;2022-12-15T09:39:48;48.80;;;22.30;;
36137;SDS011;22194;50.046;21.954;2022-12-15T09:42:23;45.70;;;23.20;;
36137;SDS011;22194;50.046;21.954;2022-12-15T09:44:57;49.60;;;23.40;;
36137;SDS011;22194;50.046;21.954;2022-12-15T09:47:40;47.50;;;22.70;;
36137;SDS011;22194;50.046;21.954;2022-12-15T09:50:34;47.60;;;24.40;;
36137;SDS011;22194;50.046;21.954;2022-12-15T09:53:11;41.60;;;22.00;;
36137;SDS011;22194;50.046;21.954;2022-12-15T09:56:11;46.20;;;24.20;;
36137;SDS011;22194;50.046;21.954;2022-12-15T10:04:56;46.90;;;23.50;;
36137;SDS011;22194;50.046;21.954;2022-12-15T10:08:19;45.30;;;22.50;;
36137;SDS011;22194;50.046;21.954;2022-12-15T10:10:55;47.40;;;24.50;;
36137;SDS011;22194;50.046;21.954;2022-12-15T10:16:29;47.20;;;24.00;;
36137;SDS011;22194;50.046;21.954;2022-12-15T10:19:39;50.90;;;25.60;;
36137;SDS011;22194;50.046;21.954;2022-12-15T10:22:23;49.20;;;26.20;;
36137;SDS011;22194;50.046;21.954;2022-12-15T10:30:55;50.50;;;25.50;;
36137;SDS011;22194;50.046;21.954;2022-12-15T10:33:40;47.60;;;25.50;;
36137;SDS011;22194;50.046;21.954;2022-12-15T10:36:19;46.40;;;25.70;;
36137;SDS011;22194;50.046;21.954;2022-12-15T10:38:49;48.90;;;25.20;;
36137;SDS011;22194;50.046;21.954;2022-12-15T10:41:22;47.10;;;25.40;;
36137;SDS011;22194;50.046;21.954;2022-12-15T10:43:58;44.40;;;24.50;;
36137;SDS011;22194;50.046;21.954;2022-12-15T10:46:30;48.40;;;24.60;;
36137;SDS011;22194;50.046;21.954;2022-12-15T10:51:54;52.80;;;26.40;;
36137;SDS011;22194;50.046;21.954;2022-12-15T10:54:30;52.10;;;29.10;;
36137;SDS011;22194;50.046;21.954;2022-12-15T10:57:16;52.30;;;28.10;;
36137;SDS011;22194;50.046;21.954;2022-12-15T10:59:49;51.10;;;27.60;;
36137;SDS011;22194;50.046;21.954;2022-12-15T11:02:27;56.50;;;28.90;;
36137;SDS011;22194;50.046;21.954;2022-12-15T11:05:05;50.60;;;26.00;;
36137;SDS011;22194;50.046;21.954;2022-12-15T11:10:26;54.10;;;27.60;;
36137;SDS011;22194;50.046;21.954;2022-12-15T11:13:20;59.40;;;31.90;;
36137;SDS011;22194;50.046;21.954;2022-12-15T11:16:09;60.30;;;31.20;;
36137;SDS011;22194;50.046;21.954;2022-12-15T11:18:50;59.20;;;31.40;;
36137;SDS011;22194;50.046;21.954;2022-12-15T11:21:47;58.30;;;31.70;;
36137;SDS011;22194;50.046;21.954;2022-12-15T11:24:34;55.80;;;30.30;;
36137;SDS011;22194;50.046;21.954;2022-12-15T11:30:00;56.30;;;30.60;;
36137;SDS011;22194;50.046;21.954;2022-12-15T11:32:37;54.50;;;29.20;;
36137;SDS011;22194;50.046;21.954;2022-12-15T11:35:17;55.40;;;31.00;;
36137;SDS011;22194;50.046;21.954;2022-12-15T11:38:31;59.70;;;31.70;;
36137;SDS011;22194;50.046;21.954;2022-12-15T11:41:28;55.20;;;31.00;;
36137;SDS011;22194;50.046;21.954;2022-12-15T11:44:15;56.90;;;32.00;;
36137;SDS011;22194;50.046;21.954;2022-12-15T12:01:14;65.10;;;34.70;;
36137;SDS011;22194;50.046;21.954;2022-12-15T12:13:08;67.20;;;36.40;;
36137;SDS011;22194;50.046;21.954;2022-12-15T12:19:23;69.00;;;38.10;;
36137;SDS011;22194;50.046;21.954;2022-12-15T12:21:47;65.60;;;36.80;;
36137;SDS011;22194;50.046;21.954;2022-12-15T12:24:30;74.80;;;41.00;;
36137;SDS011;22194;50.046;21.954;2022-12-15T12:30:24;72.90;;;39.60;;
36137;SDS011;22194;50.046;21.954;2022-12-15T12:38:28;68.40;;;35.70;;
36137;SDS011;22194;50.046;21.954;2022-12-15T12:43:58;74.10;;;39.50;;
36137;SDS011;22194;50.046;21.954;2022-12-15T12:46:45;72.40;;;37.60;;
36137;SDS011;22194;50.046;21.954;2022-12-15T12:52:04;69.60;;;38.10;;
36137;SDS011;22194;50.046;21.954;2022-12-15T12:54:54;71.70;;;37.90;;
36137;SDS011;22194;50.046;21.954;2022-12-15T12:57:47;74.60;;;38.20;;
36137;SDS011;22194;50.046;21.954;2022-12-15T13:00:22;57.40;;;32.30;;
36137;SDS011;22194;50.046;21.954;2022-12-15T13:05:31;72.30;;;35.80;;
36137;SDS011;22194;50.046;21.954;2022-12-15T13:10:40;70.10;;;34.80;;
36137;SDS011;22194;50.046;21.954;2022-12-15T13:16:07;72.80;;;39.50;;
36137;SDS011;22194;50.046;21.954;2022-12-15T13:19:05;69.50;;;37.00;;
36137;SDS011;22194;50.046;21.954;2022-12-15T13:27:10;72.30;;;38.90;;
36137;SDS011;22194;50.046;21.954;2022-12-15T13:35:42;74.80;;;38.80;;
36137;SDS011;22194;50.046;21.954;2022-12-15T13:38:15;75.80;;;40.30;;
36137;SDS011;22194;50.046;21.954;2022-12-15T13:43:38;78.40;;;41.80;;
36137;SDS011;22194;50.046;21.954;2022-12-15T13:46:21;67.90;;;34.60;;
36137;SDS011;22194;50.046;21.954;2022-12-15T13:49:06;81.20;;;41.00;;
36137;SDS011;22194;50.046;21.954;2022-12-15T13:51:51;78.60;;;40.90;;
36137;SDS011;22194;50.046;21.954;2022-12-15T13:54:34;79.90;;;43.10;;
36137;SDS011;22194;50.046;21.954;2022-12-15T13:57:08;77.70;;;41.50;;
36137;SDS011;22194;50.046;21.954;2022-12-15T13:59:49;77.10;;;40.70;;
36137;SDS011;22194;50.046;21.954;2022-12-15T14:02:30;72.90;;;40.30;;
36137;SDS011;22194;50.046;21.954;2022-12-15T14:05:14;72.50;;;38.50;;
36137;SDS011;22194;50.046;21.954;2022-12-15T14:10:40;76.60;;;39.90;;
36137;SDS011;22194;50.046;21.954;2022-12-15T14:19:10;69.60;;;37.50;;
36137;SDS011;22194;50.046;21.954;2022-12-15T14:21:47;79.60;;;41.10;;
36137;SDS011;22194;50.046;21.954;2022-12-15T14:24:22;73.10;;;38.80;;
36137;SDS011;22194;50.046;21.954;2022-12-15T14:27:26;83.10;;;43.90;;
36137;SDS011;22194;50.046;21.954;2022-12-15T14:32:44;76.40;;;40.50;;
36137;SDS011;22194;50.046;21.954;2022-12-15T14:38:13;78.20;;;44.10;;
36137;SDS011;22194;50.046;21.954;2022-12-15T14:40:47;81.20;;;43.60;;
36137;SDS011;22194;50.046;21.954;2022-12-15T14:43:24;85.70;;;45.80;;
36137;SDS011;22194;50.046;21.954;2022-12-15T14:48:36;80.90;;;44.10;;
36137;SDS011;22194;50.046;21.954;2022-12-15T14:51:20;82.70;;;43.10;;
36137;SDS011;22194;50.046;21.954;2022-12-15T14:53:50;77.50;;;41.00;;
36137;SDS011;22194;50.046;21.954;2022-12-15T14:58:59;85.00;;;46.40;;
36137;SDS011;22194;50.046;21.954;2022-12-15T15:01:49;85.30;;;44.90;;
36137;SDS011;22194;50.046;21.954;2022-12-15T15:04:34;77.80;;;42.60;;
36137;SDS011;22194;50.046;21.954;2022-12-15T15:07:07;82.90;;;43.60;;
36137;SDS011;22194;50.046;21.954;2022-12-15T15:09:44;78.60;;;45.00;;
36137;SDS011;22194;50.046;21.954;2022-12-15T15:12:21;80.30;;;45.50;;
36137;SDS011;22194;50.046;21.954;2022-12-15T15:15:13;82.90;;;44.80;;
36137;SDS011;22194;50.046;21.954;2022-12-15T15:17:50;84.90;;;46.50;;
36137;SDS011;22194;50.046;21.954;2022-12-15T15:20:28;89.80;;;45.80;;
36137;SDS011;22194;50.046;21.954;2022-12-15T15:23:10;91.20;;;49.70;;
36137;SDS011;22194;50.046;21.954;2022-12-15T15:28:40;99.40;;;49.90;;
36137;SDS011;22194;50.046;21.954;2022-12-15T15:34:08;79.40;;;47.00;;
36137;SDS011;22194;50.046;21.954;2022-12-15T15:36:41;85.90;;;46.30;;
36137;SDS011;22194;50.046;21.954;2022-12-15T15:39:11;89.90;;;46.40;;
36137;SDS011;22194;50.046;21.954;2022-12-15T15:41:43;93.60;;;50.30;;
36137;SDS011;22194;50.046;21.954;2022-12-15T15:44:12;91.50;;;47.40;;
36137;SDS011;22194;50.046;21.954;2022-12-15T15:46:46;99.40;;;52.00;;
36137;SDS011;22194;50.046;21.954;2022-12-15T15:49:19;91.60;;;49.90;;
36137;SDS011;22194;50.046;21.954;2022-12-15T15:51:53;106.80;;;58.20;;
36137;SDS011;22194;50.046;21.954;2022-12-15T15:54:27;118.80;;;62.30;;
36137;SDS011;22194;50.046;21.954;2022-12-15T15:57:02;148.00;;;76.40;;
36137;SDS011;22194;50.046;21.954;2022-12-15T15:59:35;145.80;;;74.60;;
36137;SDS011;22194;50.046;21.954;2022-12-15T16:02:07;133.70;;;74.60;;
36137;SDS011;22194;50.046;21.954;2022-12-15T16:04:41;148.50;;;87.80;;
36137;SDS011;22194;50.046;21.954;2022-12-15T16:09:55;174.10;;;103.70;;
36137;SDS011;22194;50.046;21.954;2022-12-15T16:12:28;191.40;;;108.50;;
36137;SDS011;22194;50.046;21.954;2022-12-15T16:15:08;187.70;;;105.10;;
36137;SDS011;22194;50.046;21.954;2022-12-15T16:17:48;176.10;;;98.20;;
36137;SDS011;22194;50.046;21.954;2022-12-15T16:20:21;148.20;;;81.80;;
36137;SDS011;22194;50.046;21.954;2022-12-15T16:22:59;144.70;;;77.90;;
36137;SDS011;22194;50.046;21.954;2022-12-15T16:25:36;134.00;;;71.90;;
36137;SDS011;22194;50.046;21.954;2022-12-15T16:28:22;122.20;;;68.00;;
36137;SDS011;22194;50.046;21.954;2022-12-15T16:30:56;125.10;;;66.10;;
36137;SDS011;22194;50.046;21.954;2022-12-15T16:33:29;113.80;;;65.20;;
36137;SDS011;22194;50.046;21.954;2022-12-15T16:36:01;115.30;;;61.70;;
36137;SDS011;22194;50.046;21.954;2022-12-15T16:38:29;112.50;;;62.30;;
36137;SDS011;22194;50.046;21.954;2022-12-15T16:41:03;114.70;;;62.50;;
36137;SDS011;22194;50.046;21.954;2022-12-15T16:43:39;113.50;;;60.60;;
36137;SDS011;22194;50.046;21.954;2022-12-15T16:46:14;105.00;;;58.30;;
36137;SDS011;22194;50.046;21.954;2022-12-15T16:48:47;107.50;;;57.30;;
36137;SDS011;22194;50.046;21.954;2022-12-15T16:51:26;100.00;;;52.80;;
36137;SDS011;22194;50.046;21.954;2022-12-15T16:54:05;95.70;;;50.20;;
36137;SDS011;22194;50.046;21.954;2022-12-15T16:57:00;92.80;;;48.50;;
36137;SDS011;22194;50.046;21.954;2022-12-15T16:59:32;99.30;;;55.60;;
36137;SDS011;22194;50.046;21.954;2022-12-15T17:02:49;92.70;;;52.70;;
36137;SDS011;22194;50.046;21.954;2022-12-15T17:05:02;101.40;;;53.50;;
36137;SDS011;22194;50.046;21.954;2022-12-15T17:07:30;89.10;;;48.20;;
36137;SDS011;22194;50.046;21.954;2022-12-15T17:10:04;96.30;;;50.70;;
36137;SDS011;22194;50.046;21.954;2022-12-15T17:12:34;93.60;;;48.90;;
36137;SDS011;22194;50.046;21.954;2022-12-15T17:15:16;98.70;;;50.70;;
36137;SDS011;22194;50.046;21.954;2022-12-15T17:17:55;86.60;;;45.30;;
36137;SDS011;22194;50.046;21.954;2022-12-15T17:20:27;93.10;;;51.50;;
36137;SDS011;22194;50.046;21.954;2022-12-15T17:23:01;96.90;;;48.90;;
36137;SDS011;22194;50.046;21.954;2022-12-15T17:25:39;89.20;;;45.60;;
36137;SDS011;22194;50.046;21.954;2022-12-15T17:28:34;86.50;;;43.20;;
36137;SDS011;22194;50.046;21.954;2022-12-15T17:31:11;80.90;;;43.60;;